sensor_id;sensor_type;location;lat;lon;timestamp;P1;durP1;ratioP1;P2;durP2;ratioP2
52554;SDS011;38455;52.710;6.502;2023-04-03T00:01:27;3.97;;;1.27;;
52554;SDS011;38455;52.710;6.502;2023-04-03T00:03:53;4.63;;;1.20;;
52554;SDS011;38455;52.710;6.502;2023-04-03T00:06:19;3.42;;;1.27;;
52554;SDS011;38455;52.710;6.502;2023-04-03T00:08:45;2.67;;;1.38;;
52554;SDS011;38455;52.710;6.502;2023-04-03T00:11:11;6.35;;;2.10;;
52554;SDS011;38455;52.710;6.502;2023-04-03T00:13:37;5.30;;;1.58;;
52554;SDS011;38455;52.710;6.502;2023-04-03T00:16:04;5.63;;;1.40;;
52554;SDS011;38455;52.710;6.502;2023-04-03T00:18:30;3.25;;;1.10;;
52554;SDS011;38455;52.710;6.502;2023-04-03T00:20:57;5.05;;;1.95;;
52554;SDS011;38455;52.710;6.502;2023-04-03T00:23:22;2.78;;;1.10;;
52554;SDS011;38455;52.710;6.502;2023-04-03T00:25:48;3.55;;;1.02;;
52554;SDS011;38455;52.710;6.502;2023-04-03T00:28:15;4.15;;;1.30;;
52554;SDS011;38455;52.710;6.502;2023-04-03T00:30:41;6.22;;;1.80;;
52554;SDS011;38455;52.710;6.502;2023-04-03T00:33:07;3.67;;;1.30;;
52554;SDS011;38455;52.710;6.502;2023-04-03T00:35:34;4.75;;;1.38;;
52554;SDS011;38455;52.710;6.502;2023-04-03T00:38:00;5.07;;;1.60;;
52554;SDS011;38455;52.710;6.502;2023-04-03T00:40:26;4.30;;;1.52;;
52554;SDS011;38455;52.710;6.502;2023-04-03T00:42:55;4.95;;;1.48;;
52554;SDS011;38455;52.710;6.502;2023-04-03T00:45:35;4.35;;;1.67;;
52554;SDS011;38455;52.710;6.502;2023-04-03T00:48:03;4.15;;;1.80;;
52554;SDS011;38455;52.710;6.502;2023-04-03T00:50:32;2.63;;;1.13;;
52554;SDS011;38455;52.710;6.502;2023-04-03T00:53:00;3.00;;;1.33;;
52554;SDS011;38455;52.710;6.502;2023-04-03T00:55:26;4.35;;;1.48;;
52554;SDS011;38455;52.710;6.502;2023-04-03T00:57:53;4.47;;;2.28;;
52554;SDS011;38455;52.710;6.502;2023-04-03T01:00:21;4.25;;;1.25;;
52554;SDS011;38455;52.710;6.502;2023-04-03T01:02:48;2.47;;;1.25;;
52554;SDS011;38455;52.710;6.502;2023-04-03T01:05:15;3.88;;;1.27;;
52554;SDS011;38455;52.710;6.502;2023-04-03T01:07:42;4.00;;;2.55;;
52554;SDS011;38455;52.710;6.502;2023-04-03T01:10:09;8.98;;;3.25;;
52554;SDS011;38455;52.710;6.502;2023-04-03T01:12:39;4.88;;;1.45;;
52554;SDS011;38455;52.710;6.502;2023-04-03T01:15:11;2.63;;;1.20;;
52554;SDS011;38455;52.710;6.502;2023-04-03T01:17:44;2.25;;;1.33;;
52554;SDS011;38455;52.710;6.502;2023-04-03T01:20:37;4.55;;;2.25;;
52554;SDS011;38455;52.710;6.502;2023-04-03T01:23:16;6.07;;;1.73;;
52554;SDS011;38455;52.710;6.502;2023-04-03T01:25:49;7.57;;;1.55;;
52554;SDS011;38455;52.710;6.502;2023-04-03T01:28:21;3.42;;;1.20;;
52554;SDS011;38455;52.710;6.502;2023-04-03T01:33:20;3.97;;;1.70;;
52554;SDS011;38455;52.710;6.502;2023-04-03T01:35:45;5.75;;;1.50;;
52554;SDS011;38455;52.710;6.502;2023-04-03T01:38:11;5.35;;;2.42;;
52554;SDS011;38455;52.710;6.502;2023-04-03T01:40:37;3.45;;;1.42;;
52554;SDS011;38455;52.710;6.502;2023-04-03T01:43:02;6.18;;;1.90;;
52554;SDS011;38455;52.710;6.502;2023-04-03T01:45:28;3.17;;;1.55;;
52554;SDS011;38455;52.710;6.502;2023-04-03T01:47:53;4.85;;;1.60;;
52554;SDS011;38455;52.710;6.502;2023-04-03T01:50:19;3.42;;;1.42;;
52554;SDS011;38455;52.710;6.502;2023-04-03T01:52:45;2.95;;;1.27;;
52554;SDS011;38455;52.710;6.502;2023-04-03T01:55:11;4.55;;;1.60;;
52554;SDS011;38455;52.710;6.502;2023-04-03T01:57:36;3.10;;;1.52;;
52554;SDS011;38455;52.710;6.502;2023-04-03T02:00:02;5.28;;;1.50;;
52554;SDS011;38455;52.710;6.502;2023-04-03T02:02:28;3.50;;;1.67;;
52554;SDS011;38455;52.710;6.502;2023-04-03T02:04:54;5.25;;;2.00;;
52554;SDS011;38455;52.710;6.502;2023-04-03T02:07:20;5.18;;;2.35;;
52554;SDS011;38455;52.710;6.502;2023-04-03T02:09:45;5.68;;;1.90;;
52554;SDS011;38455;52.710;6.502;2023-04-03T02:12:11;7.25;;;2.80;;
52554;SDS011;38455;52.710;6.502;2023-04-03T02:14:36;5.13;;;1.58;;
52554;SDS011;38455;52.710;6.502;2023-04-03T02:17:02;5.05;;;1.70;;
52554;SDS011;38455;52.710;6.502;2023-04-03T02:19:30;6.45;;;2.47;;
52554;SDS011;38455;52.710;6.502;2023-04-03T02:21:56;6.13;;;1.67;;
52554;SDS011;38455;52.710;6.502;2023-04-03T02:24:21;7.45;;;2.17;;
52554;SDS011;38455;52.710;6.502;2023-04-03T02:26:47;6.32;;;1.92;;
52554;SDS011;38455;52.710;6.502;2023-04-03T02:29:13;5.28;;;1.80;;
52554;SDS011;38455;52.710;6.502;2023-04-03T02:31:38;7.93;;;2.08;;
52554;SDS011;38455;52.710;6.502;2023-04-03T02:34:04;4.80;;;2.03;;
52554;SDS011;38455;52.710;6.502;2023-04-03T02:36:30;4.60;;;1.95;;
52554;SDS011;38455;52.710;6.502;2023-04-03T02:38:56;5.82;;;2.28;;
52554;SDS011;38455;52.710;6.502;2023-04-03T02:41:22;6.47;;;1.63;;
52554;SDS011;38455;52.710;6.502;2023-04-03T02:43:48;5.68;;;1.80;;
52554;SDS011;38455;52.710;6.502;2023-04-03T02:46:13;5.93;;;1.90;;
52554;SDS011;38455;52.710;6.502;2023-04-03T02:48:40;4.95;;;1.80;;
52554;SDS011;38455;52.710;6.502;2023-04-03T02:51:06;4.55;;;1.98;;
52554;SDS011;38455;52.710;6.502;2023-04-03T02:53:31;6.43;;;2.00;;
52554;SDS011;38455;52.710;6.502;2023-04-03T02:55:57;3.40;;;2.05;;
52554;SDS011;38455;52.710;6.502;2023-04-03T02:58:23;4.97;;;2.28;;
52554;SDS011;38455;52.710;6.502;2023-04-03T03:00:48;11.30;;;3.38;;
52554;SDS011;38455;52.710;6.502;2023-04-03T03:03:14;5.75;;;2.00;;
52554;SDS011;38455;52.710;6.502;2023-04-03T03:05:40;8.75;;;2.17;;
52554;SDS011;38455;52.710;6.502;2023-04-03T03:08:05;7.15;;;2.35;;
52554;SDS011;38455;52.710;6.502;2023-04-03T03:10:31;7.88;;;1.92;;
52554;SDS011;38455;52.710;6.502;2023-04-03T03:12:56;10.25;;;3.20;;
52554;SDS011;38455;52.710;6.502;2023-04-03T03:15:22;5.40;;;2.05;;
52554;SDS011;38455;52.710;6.502;2023-04-03T03:17:48;5.38;;;2.35;;
52554;SDS011;38455;52.710;6.502;2023-04-03T03:20:13;5.85;;;2.58;;
52554;SDS011;38455;52.710;6.502;2023-04-03T03:22:40;6.25;;;2.35;;
52554;SDS011;38455;52.710;6.502;2023-04-03T03:25:06;7.25;;;2.40;;
52554;SDS011;38455;52.710;6.502;2023-04-03T03:27:32;7.93;;;2.30;;
52554;SDS011;38455;52.710;6.502;2023-04-03T03:29:57;3.05;;;1.70;;
52554;SDS011;38455;52.710;6.502;2023-04-03T03:32:23;6.53;;;2.78;;
52554;SDS011;38455;52.710;6.502;2023-04-03T03:34:49;5.90;;;2.40;;
52554;SDS011;38455;52.710;6.502;2023-04-03T03:37:15;4.20;;;2.40;;
52554;SDS011;38455;52.710;6.502;2023-04-03T03:39:40;7.70;;;1.92;;
52554;SDS011;38455;52.710;6.502;2023-04-03T03:42:06;8.40;;;2.83;;
52554;SDS011;38455;52.710;6.502;2023-04-03T03:44:32;10.77;;;2.60;;
52554;SDS011;38455;52.710;6.502;2023-04-03T03:46:57;6.78;;;2.53;;
52554;SDS011;38455;52.710;6.502;2023-04-03T03:49:23;6.65;;;2.60;;
52554;SDS011;38455;52.710;6.502;2023-04-03T03:51:48;11.07;;;2.75;;
52554;SDS011;38455;52.710;6.502;2023-04-03T03:54:15;9.07;;;2.45;;
52554;SDS011;38455;52.710;6.502;2023-04-03T03:56:41;5.57;;;2.30;;
52554;SDS011;38455;52.710;6.502;2023-04-03T03:59:07;5.53;;;2.10;;
52554;SDS011;38455;52.710;6.502;2023-04-03T04:01:32;10.48;;;3.70;;
52554;SDS011;38455;52.710;6.502;2023-04-03T04:03:58;8.20;;;2.80;;
52554;SDS011;38455;52.710;6.502;2023-04-03T04:06:24;5.25;;;2.50;;
52554;SDS011;38455;52.710;6.502;2023-04-03T04:08:50;11.15;;;3.00;;
52554;SDS011;38455;52.710;6.502;2023-04-03T04:11:15;6.40;;;2.42;;
52554;SDS011;38455;52.710;6.502;2023-04-03T04:13:41;14.45;;;3.65;;
52554;SDS011;38455;52.710;6.502;2023-04-03T04:16:07;6.85;;;2.70;;
52554;SDS011;38455;52.710;6.502;2023-04-03T04:18:33;5.85;;;2.20;;
52554;SDS011;38455;52.710;6.502;2023-04-03T04:20:58;4.90;;;2.20;;
52554;SDS011;38455;52.710;6.502;2023-04-03T04:23:25;8.25;;;2.42;;
52554;SDS011;38455;52.710;6.502;2023-04-03T04:25:50;9.35;;;2.63;;
52554;SDS011;38455;52.710;6.502;2023-04-03T04:28:16;10.10;;;2.60;;
52554;SDS011;38455;52.710;6.502;2023-04-03T04:30:43;3.78;;;2.20;;
52554;SDS011;38455;52.710;6.502;2023-04-03T04:33:09;5.85;;;2.38;;
52554;SDS011;38455;52.710;6.502;2023-04-03T04:35:35;11.48;;;2.70;;
52554;SDS011;38455;52.710;6.502;2023-04-03T04:38:00;8.02;;;2.72;;
52554;SDS011;38455;52.710;6.502;2023-04-03T04:40:27;4.50;;;2.05;;
52554;SDS011;38455;52.710;6.502;2023-04-03T04:42:53;7.55;;;2.22;;
52554;SDS011;38455;52.710;6.502;2023-04-03T04:45:19;7.85;;;2.75;;
52554;SDS011;38455;52.710;6.502;2023-04-03T04:47:45;5.03;;;2.35;;
52554;SDS011;38455;52.710;6.502;2023-04-03T04:50:11;11.13;;;2.90;;
52554;SDS011;38455;52.710;6.502;2023-04-03T04:52:37;6.50;;;2.22;;
52554;SDS011;38455;52.710;6.502;2023-04-03T04:55:03;5.70;;;2.67;;
52554;SDS011;38455;52.710;6.502;2023-04-03T04:57:29;8.95;;;2.90;;
52554;SDS011;38455;52.710;6.502;2023-04-03T04:59:55;6.25;;;3.10;;
52554;SDS011;38455;52.710;6.502;2023-04-03T05:02:20;8.85;;;2.40;;
52554;SDS011;38455;52.710;6.502;2023-04-03T05:04:46;8.35;;;2.95;;
52554;SDS011;38455;52.710;6.502;2023-04-03T05:07:12;7.40;;;2.50;;
52554;SDS011;38455;52.710;6.502;2023-04-03T05:09:37;22.80;;;5.55;;
52554;SDS011;38455;52.710;6.502;2023-04-03T05:12:03;5.25;;;2.28;;
52554;SDS011;38455;52.710;6.502;2023-04-03T05:14:29;8.52;;;2.60;;
52554;SDS011;38455;52.710;6.502;2023-04-03T05:16:55;8.18;;;2.67;;
52554;SDS011;38455;52.710;6.502;2023-04-03T05:19:21;5.57;;;2.78;;
52554;SDS011;38455;52.710;6.502;2023-04-03T05:21:47;8.63;;;2.45;;
52554;SDS011;38455;52.710;6.502;2023-04-03T05:24:13;8.82;;;2.60;;
52554;SDS011;38455;52.710;6.502;2023-04-03T05:26:39;6.97;;;2.33;;
52554;SDS011;38455;52.710;6.502;2023-04-03T05:29:05;10.02;;;3.10;;
52554;SDS011;38455;52.710;6.502;2023-04-03T05:31:31;3.72;;;2.35;;
52554;SDS011;38455;52.710;6.502;2023-04-03T05:33:57;8.07;;;2.75;;
52554;SDS011;38455;52.710;6.502;2023-04-03T05:36:22;7.35;;;2.97;;
52554;SDS011;38455;52.710;6.502;2023-04-03T05:38:48;6.55;;;3.03;;
52554;SDS011;38455;52.710;6.502;2023-04-03T05:41:14;9.20;;;3.80;;
52554;SDS011;38455;52.710;6.502;2023-04-03T05:43:40;5.43;;;2.33;;
52554;SDS011;38455;52.710;6.502;2023-04-03T05:46:12;11.10;;;2.83;;
52554;SDS011;38455;52.710;6.502;2023-04-03T05:48:43;8.88;;;3.72;;
52554;SDS011;38455;52.710;6.502;2023-04-03T05:51:13;7.45;;;2.67;;
52554;SDS011;38455;52.710;6.502;2023-04-03T05:53:44;8.40;;;2.30;;
52554;SDS011;38455;52.710;6.502;2023-04-03T05:56:11;8.55;;;2.42;;
52554;SDS011;38455;52.710;6.502;2023-04-03T05:58:37;5.50;;;2.88;;
52554;SDS011;38455;52.710;6.502;2023-04-03T06:01:03;9.07;;;2.95;;
52554;SDS011;38455;52.710;6.502;2023-04-03T06:03:30;8.38;;;2.50;;
52554;SDS011;38455;52.710;6.502;2023-04-03T06:05:56;7.18;;;2.60;;
52554;SDS011;38455;52.710;6.502;2023-04-03T06:08:22;6.28;;;2.03;;
52554;SDS011;38455;52.710;6.502;2023-04-03T06:10:48;9.32;;;3.08;;
52554;SDS011;38455;52.710;6.502;2023-04-03T06:13:15;5.00;;;2.00;;
52554;SDS011;38455;52.710;6.502;2023-04-03T06:15:41;8.13;;;2.10;;
52554;SDS011;38455;52.710;6.502;2023-04-03T06:18:07;7.50;;;2.40;;
52554;SDS011;38455;52.710;6.502;2023-04-03T06:20:33;6.05;;;2.58;;
52554;SDS011;38455;52.710;6.502;2023-04-03T06:22:58;5.55;;;1.90;;
52554;SDS011;38455;52.710;6.502;2023-04-03T06:25:25;7.15;;;1.98;;
52554;SDS011;38455;52.710;6.502;2023-04-03T06:27:51;6.07;;;2.03;;
52554;SDS011;38455;52.710;6.502;2023-04-03T06:30:17;7.38;;;1.80;;
52554;SDS011;38455;52.710;6.502;2023-04-03T06:32:43;8.88;;;2.58;;
52554;SDS011;38455;52.710;6.502;2023-04-03T06:35:08;6.80;;;2.00;;
52554;SDS011;38455;52.710;6.502;2023-04-03T06:37:34;9.48;;;1.60;;
52554;SDS011;38455;52.710;6.502;2023-04-03T06:40:00;5.93;;;1.70;;
52554;SDS011;38455;52.710;6.502;2023-04-03T06:42:26;7.22;;;1.88;;
52554;SDS011;38455;52.710;6.502;2023-04-03T06:44:52;8.05;;;2.47;;
52554;SDS011;38455;52.710;6.502;2023-04-03T06:47:18;6.43;;;1.85;;
52554;SDS011;38455;52.710;6.502;2023-04-03T06:49:43;4.03;;;1.88;;
52554;SDS011;38455;52.710;6.502;2023-04-03T06:52:09;7.32;;;2.28;;
52554;SDS011;38455;52.710;6.502;2023-04-03T06:54:37;4.75;;;1.50;;
52554;SDS011;38455;52.710;6.502;2023-04-03T06:57:03;6.90;;;1.75;;
52554;SDS011;38455;52.710;6.502;2023-04-03T06:59:29;4.97;;;1.52;;
52554;SDS011;38455;52.710;6.502;2023-04-03T07:01:55;5.72;;;1.70;;
52554;SDS011;38455;52.710;6.502;2023-04-03T07:04:20;4.63;;;1.60;;
52554;SDS011;38455;52.710;6.502;2023-04-03T07:06:46;4.80;;;1.70;;
52554;SDS011;38455;52.710;6.502;2023-04-03T07:09:13;6.40;;;2.38;;
52554;SDS011;38455;52.710;6.502;2023-04-03T07:11:39;10.00;;;5.32;;
52554;SDS011;38455;52.710;6.502;2023-04-03T07:14:05;8.27;;;2.95;;
52554;SDS011;38455;52.710;6.502;2023-04-03T07:16:32;9.55;;;3.08;;
52554;SDS011;38455;52.710;6.502;2023-04-03T07:19:01;8.82;;;2.72;;
52554;SDS011;38455;52.710;6.502;2023-04-03T07:21:28;7.45;;;2.47;;
52554;SDS011;38455;52.710;6.502;2023-04-03T07:23:54;7.60;;;4.07;;
52554;SDS011;38455;52.710;6.502;2023-04-03T07:26:20;9.65;;;3.08;;
52554;SDS011;38455;52.710;6.502;2023-04-03T07:28:47;4.30;;;1.60;;
52554;SDS011;38455;52.710;6.502;2023-04-03T07:31:14;5.80;;;1.35;;
52554;SDS011;38455;52.710;6.502;2023-04-03T07:33:42;4.80;;;1.70;;
52554;SDS011;38455;52.710;6.502;2023-04-03T07:36:09;6.93;;;1.70;;
52554;SDS011;38455;52.710;6.502;2023-04-03T07:38:35;4.25;;;1.55;;
52554;SDS011;38455;52.710;6.502;2023-04-03T07:41:02;4.60;;;2.03;;
52554;SDS011;38455;52.710;6.502;2023-04-03T07:43:28;3.28;;;1.42;;
52554;SDS011;38455;52.710;6.502;2023-04-03T07:45:54;3.83;;;1.60;;
52554;SDS011;38455;52.710;6.502;2023-04-03T07:48:20;5.70;;;1.90;;
52554;SDS011;38455;52.710;6.502;2023-04-03T07:50:47;5.65;;;1.60;;
52554;SDS011;38455;52.710;6.502;2023-04-03T07:53:13;5.03;;;1.45;;
52554;SDS011;38455;52.710;6.502;2023-04-03T07:55:39;3.40;;;1.48;;
52554;SDS011;38455;52.710;6.502;2023-04-03T07:58:11;6.70;;;1.85;;
52554;SDS011;38455;52.710;6.502;2023-04-03T08:00:39;4.78;;;1.30;;
52554;SDS011;38455;52.710;6.502;2023-04-03T08:03:05;5.05;;;1.02;;
52554;SDS011;38455;52.710;6.502;2023-04-03T08:05:31;4.25;;;1.20;;
52554;SDS011;38455;52.710;6.502;2023-04-03T08:08:01;4.60;;;1.60;;
52554;SDS011;38455;52.710;6.502;2023-04-03T08:10:26;5.95;;;2.13;;
52554;SDS011;38455;52.710;6.502;2023-04-03T08:12:54;4.38;;;1.20;;
52554;SDS011;38455;52.710;6.502;2023-04-03T08:15:20;2.90;;;1.08;;
52554;SDS011;38455;52.710;6.502;2023-04-03T08:17:45;2.72;;;1.20;;
52554;SDS011;38455;52.710;6.502;2023-04-03T08:20:11;4.88;;;1.20;;
52554;SDS011;38455;52.710;6.502;2023-04-03T08:22:37;6.50;;;1.60;;
52554;SDS011;38455;52.710;6.502;2023-04-03T08:25:03;3.28;;;1.10;;
52554;SDS011;38455;52.710;6.502;2023-04-03T08:27:29;3.88;;;1.08;;
52554;SDS011;38455;52.710;6.502;2023-04-03T08:29:55;2.83;;;1.40;;
52554;SDS011;38455;52.710;6.502;2023-04-03T08:32:21;6.63;;;1.40;;
52554;SDS011;38455;52.710;6.502;2023-04-03T08:34:48;2.58;;;1.25;;
52554;SDS011;38455;52.710;6.502;2023-04-03T08:37:13;3.95;;;1.15;;
52554;SDS011;38455;52.710;6.502;2023-04-03T08:39:41;3.53;;;1.20;;
52554;SDS011;38455;52.710;6.502;2023-04-03T08:42:26;3.28;;;1.10;;
52554;SDS011;38455;52.710;6.502;2023-04-03T08:47:42;2.53;;;1.10;;
52554;SDS011;38455;52.710;6.502;2023-04-03T08:50:19;3.25;;;1.10;;
52554;SDS011;38455;52.710;6.502;2023-04-03T08:52:48;3.50;;;1.80;;
52554;SDS011;38455;52.710;6.502;2023-04-03T08:57:57;2.67;;;1.20;;
52554;SDS011;38455;52.710;6.502;2023-04-03T09:00:25;4.13;;;1.20;;
52554;SDS011;38455;52.710;6.502;2023-04-03T09:02:55;2.35;;;1.20;;
52554;SDS011;38455;52.710;6.502;2023-04-03T09:08:12;4.75;;;1.60;;
52554;SDS011;38455;52.710;6.502;2023-04-03T09:10:49;3.05;;;1.02;;
52554;SDS011;38455;52.710;6.502;2023-04-03T09:22:18;2.63;;;1.23;;
52554;SDS011;38455;52.710;6.502;2023-04-03T09:24:55;3.72;;;1.10;;
52554;SDS011;38455;52.710;6.502;2023-04-03T09:27:36;2.55;;;0.90;;
52554;SDS011;38455;52.710;6.502;2023-04-03T09:30:02;4.30;;;1.30;;
52554;SDS011;38455;52.710;6.502;2023-04-03T09:32:30;2.47;;;1.10;;
52554;SDS011;38455;52.710;6.502;2023-04-03T09:35:01;2.17;;;0.88;;
52554;SDS011;38455;52.710;6.502;2023-04-03T09:37:33;2.80;;;1.13;;
52554;SDS011;38455;52.710;6.502;2023-04-03T09:40:02;4.22;;;1.20;;
52554;SDS011;38455;52.710;6.502;2023-04-03T09:42:29;1.63;;;0.70;;
52554;SDS011;38455;52.710;6.502;2023-04-03T09:44:57;1.50;;;0.90;;
52554;SDS011;38455;52.710;6.502;2023-04-03T09:47:29;2.63;;;0.95;;
52554;SDS011;38455;52.710;6.502;2023-04-03T09:52:39;3.67;;;0.90;;
52554;SDS011;38455;52.710;6.502;2023-04-03T09:55:17;2.78;;;0.73;;
52554;SDS011;38455;52.710;6.502;2023-04-03T09:57:52;1.73;;;0.70;;
52554;SDS011;38455;52.710;6.502;2023-04-03T10:00:26;1.92;;;0.57;;
52554;SDS011;38455;52.710;6.502;2023-04-03T10:02:57;1.25;;;0.73;;
52554;SDS011;38455;52.710;6.502;2023-04-03T10:10:37;1.60;;;0.50;;
52554;SDS011;38455;52.710;6.502;2023-04-03T10:13:06;2.42;;;0.52;;
52554;SDS011;38455;52.710;6.502;2023-04-03T10:15:51;2.58;;;0.82;;
52554;SDS011;38455;52.710;6.502;2023-04-03T10:21:15;2.97;;;0.70;;
52554;SDS011;38455;52.710;6.502;2023-04-03T10:26:44;2.13;;;0.70;;
52554;SDS011;38455;52.710;6.502;2023-04-03T10:34:48;1.58;;;0.77;;
52554;SDS011;38455;52.710;6.502;2023-04-03T10:37:26;2.70;;;0.85;;
52554;SDS011;38455;52.710;6.502;2023-04-03T10:40:04;3.03;;;0.90;;
52554;SDS011;38455;52.710;6.502;2023-04-03T10:42:45;2.05;;;0.75;;
52554;SDS011;38455;52.710;6.502;2023-04-03T10:51:01;1.90;;;0.60;;
52554;SDS011;38455;52.710;6.502;2023-04-03T10:58:46;2.72;;;0.85;;
52554;SDS011;38455;52.710;6.502;2023-04-03T11:01:23;1.95;;;0.95;;
52554;SDS011;38455;52.710;6.502;2023-04-03T11:03:54;3.13;;;0.90;;
52554;SDS011;38455;52.710;6.502;2023-04-03T11:06:24;3.65;;;0.90;;
52554;SDS011;38455;52.710;6.502;2023-04-03T11:08:53;2.53;;;0.80;;
52554;SDS011;38455;52.710;6.502;2023-04-03T11:11:26;3.33;;;1.15;;
52554;SDS011;38455;52.710;6.502;2023-04-03T11:14:00;2.15;;;0.93;;
52554;SDS011;38455;52.710;6.502;2023-04-03T11:16:36;3.80;;;1.00;;
52554;SDS011;38455;52.710;6.502;2023-04-03T11:22:39;2.25;;;0.80;;
52554;SDS011;38455;52.710;6.502;2023-04-03T11:25:14;1.88;;;0.77;;
52554;SDS011;38455;52.710;6.502;2023-04-03T11:27:54;3.08;;;0.98;;
52554;SDS011;38455;52.710;6.502;2023-04-03T11:30:39;1.95;;;0.57;;
52554;SDS011;38455;52.710;6.502;2023-04-03T11:36:26;3.97;;;0.95;;
52554;SDS011;38455;52.710;6.502;2023-04-03T11:38:56;2.00;;;0.80;;
52554;SDS011;38455;52.710;6.502;2023-04-03T11:41:26;3.28;;;0.80;;
52554;SDS011;38455;52.710;6.502;2023-04-03T11:43:59;3.47;;;1.10;;
52554;SDS011;38455;52.710;6.502;2023-04-03T12:13:42;3.33;;;0.70;;
52554;SDS011;38455;52.710;6.502;2023-04-03T12:16:29;3.22;;;0.90;;
52554;SDS011;38455;52.710;6.502;2023-04-03T12:19:02;3.00;;;1.05;;
52554;SDS011;38455;52.710;6.502;2023-04-03T12:32:22;3.13;;;0.90;;
52554;SDS011;38455;52.710;6.502;2023-04-03T12:43:37;3.75;;;1.10;;
52554;SDS011;38455;52.710;6.502;2023-04-03T12:46:37;3.20;;;1.20;;
52554;SDS011;38455;52.710;6.502;2023-04-03T12:49:26;5.07;;;1.17;;
52554;SDS011;38455;52.710;6.502;2023-04-03T12:51:56;3.90;;;0.95;;
52554;SDS011;38455;52.710;6.502;2023-04-03T12:54:23;2.42;;;1.10;;
52554;SDS011;38455;52.710;6.502;2023-04-03T12:57:12;2.80;;;1.15;;
52554;SDS011;38455;52.710;6.502;2023-04-03T13:00:22;3.92;;;0.80;;
52554;SDS011;38455;52.710;6.502;2023-04-03T13:02:59;3.30;;;0.98;;
52554;SDS011;38455;52.710;6.502;2023-04-03T13:05:28;3.35;;;1.77;;
52554;SDS011;38455;52.710;6.502;2023-04-03T13:08:05;2.58;;;0.80;;
52554;SDS011;38455;52.710;6.502;2023-04-03T13:10:44;3.65;;;0.90;;
52554;SDS011;38455;52.710;6.502;2023-04-03T13:13:17;2.13;;;0.80;;
52554;SDS011;38455;52.710;6.502;2023-04-03T13:15:44;3.22;;;1.00;;
52554;SDS011;38455;52.710;6.502;2023-04-03T13:18:30;3.38;;;1.10;;
52554;SDS011;38455;52.710;6.502;2023-04-03T13:21:02;2.45;;;0.85;;
52554;SDS011;38455;52.710;6.502;2023-04-03T13:23:30;3.60;;;1.00;;
52554;SDS011;38455;52.710;6.502;2023-04-03T13:25:59;2.80;;;0.90;;
52554;SDS011;38455;52.710;6.502;2023-04-03T13:28:28;3.03;;;1.08;;
52554;SDS011;38455;52.710;6.502;2023-04-03T13:31:06;2.55;;;0.90;;
52554;SDS011;38455;52.710;6.502;2023-04-03T13:36:44;2.28;;;1.13;;
52554;SDS011;38455;52.710;6.502;2023-04-03T13:41:37;2.70;;;0.98;;
52554;SDS011;38455;52.710;6.502;2023-04-03T13:44:23;1.77;;;0.95;;
52554;SDS011;38455;52.710;6.502;2023-04-03T13:46:56;3.15;;;1.20;;
52554;SDS011;38455;52.710;6.502;2023-04-03T13:49:45;2.47;;;1.08;;
52554;SDS011;38455;52.710;6.502;2023-04-03T13:52:34;2.58;;;0.88;;
52554;SDS011;38455;52.710;6.502;2023-04-03T13:55:26;2.97;;;1.20;;
52554;SDS011;38455;52.710;6.502;2023-04-03T14:03:24;3.45;;;1.35;;
52554;SDS011;38455;52.710;6.502;2023-04-03T14:05:53;3.05;;;1.15;;
52554;SDS011;38455;52.710;6.502;2023-04-03T14:08:19;2.13;;;1.02;;
52554;SDS011;38455;52.710;6.502;2023-04-03T14:10:46;3.63;;;1.33;;
52554;SDS011;38455;52.710;6.502;2023-04-03T14:13:16;5.93;;;1.20;;
52554;SDS011;38455;52.710;6.502;2023-04-03T14:15:44;2.00;;;1.05;;
52554;SDS011;38455;52.710;6.502;2023-04-03T14:18:13;4.97;;;1.58;;
52554;SDS011;38455;52.710;6.502;2023-04-03T14:20:40;5.38;;;1.10;;
52554;SDS011;38455;52.710;6.502;2023-04-03T14:23:06;4.93;;;1.25;;
52554;SDS011;38455;52.710;6.502;2023-04-03T14:25:32;2.17;;;0.98;;
52554;SDS011;38455;52.710;6.502;2023-04-03T14:27:58;5.15;;;1.15;;
52554;SDS011;38455;52.710;6.502;2023-04-03T14:30:26;3.90;;;1.20;;
52554;SDS011;38455;52.710;6.502;2023-04-03T14:32:54;5.72;;;1.45;;
52554;SDS011;38455;52.710;6.502;2023-04-03T14:35:20;4.57;;;1.67;;
52554;SDS011;38455;52.710;6.502;2023-04-03T14:37:47;3.28;;;1.23;;
52554;SDS011;38455;52.710;6.502;2023-04-03T14:40:24;5.35;;;1.33;;
52554;SDS011;38455;52.710;6.502;2023-04-03T14:42:51;5.32;;;1.65;;
52554;SDS011;38455;52.710;6.502;2023-04-03T14:45:20;3.35;;;1.10;;
52554;SDS011;38455;52.710;6.502;2023-04-03T14:47:47;5.03;;;1.25;;
52554;SDS011;38455;52.710;6.502;2023-04-03T14:50:17;4.57;;;1.55;;
52554;SDS011;38455;52.710;6.502;2023-04-03T14:52:48;6.63;;;1.58;;
52554;SDS011;38455;52.710;6.502;2023-04-03T14:55:16;2.72;;;1.27;;
52554;SDS011;38455;52.710;6.502;2023-04-03T14:57:43;3.17;;;1.40;;
52554;SDS011;38455;52.710;6.502;2023-04-03T15:00:14;6.57;;;1.45;;
52554;SDS011;38455;52.710;6.502;2023-04-03T15:02:42;3.45;;;1.33;;
52554;SDS011;38455;52.710;6.502;2023-04-03T15:05:09;2.28;;;1.10;;
52554;SDS011;38455;52.710;6.502;2023-04-03T15:07:40;3.72;;;1.00;;
52554;SDS011;38455;52.710;6.502;2023-04-03T15:10:18;2.88;;;1.27;;
52554;SDS011;38455;52.710;6.502;2023-04-03T15:12:45;4.93;;;1.30;;
52554;SDS011;38455;52.710;6.502;2023-04-03T15:15:13;4.85;;;1.92;;
52554;SDS011;38455;52.710;6.502;2023-04-03T15:17:39;3.28;;;1.30;;
52554;SDS011;38455;52.710;6.502;2023-04-03T15:20:11;2.28;;;1.10;;
52554;SDS011;38455;52.710;6.502;2023-04-03T15:22:41;2.17;;;1.00;;
52554;SDS011;38455;52.710;6.502;2023-04-03T15:25:07;2.08;;;1.00;;
52554;SDS011;38455;52.710;6.502;2023-04-03T15:27:33;2.92;;;1.17;;
52554;SDS011;38455;52.710;6.502;2023-04-03T15:29:59;3.88;;;1.50;;
52554;SDS011;38455;52.710;6.502;2023-04-03T15:32:25;2.92;;;1.25;;
52554;SDS011;38455;52.710;6.502;2023-04-03T15:34:51;2.63;;;1.30;;
52554;SDS011;38455;52.710;6.502;2023-04-03T15:37:16;2.33;;;1.00;;
52554;SDS011;38455;52.710;6.502;2023-04-03T15:39:42;2.80;;;1.30;;
52554;SDS011;38455;52.710;6.502;2023-04-03T15:42:07;3.03;;;1.23;;
52554;SDS011;38455;52.710;6.502;2023-04-03T15:44:33;3.88;;;1.35;;
52554;SDS011;38455;52.710;6.502;2023-04-03T15:47:00;4.32;;;1.40;;
52554;SDS011;38455;52.710;6.502;2023-04-03T15:49:27;3.70;;;1.40;;
52554;SDS011;38455;52.710;6.502;2023-04-03T15:51:53;6.65;;;1.30;;
52554;SDS011;38455;52.710;6.502;2023-04-03T15:54:18;5.03;;;1.20;;
52554;SDS011;38455;52.710;6.502;2023-04-03T15:56:45;6.45;;;1.55;;
52554;SDS011;38455;52.710;6.502;2023-04-03T15:59:11;4.13;;;1.30;;
52554;SDS011;38455;52.710;6.502;2023-04-03T16:01:37;2.00;;;1.20;;
52554;SDS011;38455;52.710;6.502;2023-04-03T16:04:05;5.03;;;2.05;;
52554;SDS011;38455;52.710;6.502;2023-04-03T16:06:32;5.00;;;1.60;;
52554;SDS011;38455;52.710;6.502;2023-04-03T16:08:58;3.10;;;1.50;;
52554;SDS011;38455;52.710;6.502;2023-04-03T16:11:25;4.88;;;1.30;;
52554;SDS011;38455;52.710;6.502;2023-04-03T16:13:52;2.50;;;1.40;;
52554;SDS011;38455;52.710;6.502;2023-04-03T16:16:18;3.53;;;1.63;;
52554;SDS011;38455;52.710;6.502;2023-04-03T16:18:44;2.58;;;1.25;;
52554;SDS011;38455;52.710;6.502;2023-04-03T16:21:11;4.82;;;1.40;;
52554;SDS011;38455;52.710;6.502;2023-04-03T16:23:40;4.90;;;1.17;;
52554;SDS011;38455;52.710;6.502;2023-04-03T16:26:06;2.10;;;1.23;;
52554;SDS011;38455;52.710;6.502;2023-04-03T16:28:31;3.35;;;1.42;;
52554;SDS011;38455;52.710;6.502;2023-04-03T16:30:57;5.13;;;1.48;;
52554;SDS011;38455;52.710;6.502;2023-04-03T16:33:24;3.78;;;1.40;;
52554;SDS011;38455;52.710;6.502;2023-04-03T16:35:50;4.25;;;1.65;;
52554;SDS011;38455;52.710;6.502;2023-04-03T16:38:17;5.55;;;1.75;;
52554;SDS011;38455;52.710;6.502;2023-04-03T16:40:47;4.50;;;1.48;;
52554;SDS011;38455;52.710;6.502;2023-04-03T16:43:14;2.95;;;1.30;;
52554;SDS011;38455;52.710;6.502;2023-04-03T16:45:40;3.97;;;1.38;;
52554;SDS011;38455;52.710;6.502;2023-04-03T16:48:06;3.17;;;1.40;;
52554;SDS011;38455;52.710;6.502;2023-04-03T16:50:32;4.70;;;1.33;;